• Join FlightAware (Why Join?)
  • Login
  • US Flag 
02:06PM EDT


 

Airport Tracker/Info


-or-


 

Live Flight TrackerFlight Track Log ✈ DCM6791 ✈ 05-Aug-2013 ✈ KICT - KPEA

Flight Track Log - Related Links

Times and Time Zones

All times are in EDT time to prevent confusion due to time zone crossing. See the DCM6791 flight status page for this flight to view local times or setup timezone preferences in your user account.

Time Position Orientation Groundspeed Altitude Reporting Facility
EDT Latitude Longitude Course Direction KTS MPH feet Rate Location/Type
12:36PM 37.6422 -97.4250 192° South 98 113 1,800  Level Kansas City Center
12:37PM 37.6178 -97.4314 192° South 98 113 2,800 840 Climbing Kansas City Center
12:38PM 37.6058 -97.4400 210° Southwest 99 114 3,200 960 Climbing Kansas City Center
12:39PM 37.5864 -97.4728 233° Southwest 100 115 4,500 1,080 Climbing Kansas City Center
12:40PM 37.5850 -97.4925 265° West 101 116 5,500 840 Climbing Kansas City Center
12:41PM 37.6161 -97.4839 12° North 112 129 6,300 660 Climbing Kansas City Center
12:42PM 37.6469 -97.4753 12° North 112 129 6,900 300 Climbing Kansas City Center
12:43PM 37.6872 -97.4628 14° North 138 159 7,000  Climbing Kansas City Center
12:44PM 37.7350 -97.4475 14° North 171 197 7,000  Level Kansas City Center
12:45PM 37.7914 -97.4300 14° North 174 200 7,000  Level Kansas City Center
12:46PM 37.8386 -97.4153 14° North 175 201 7,000  Level Kansas City Center
12:47PM 37.8869 -97.4006 14° North 178 205 7,000  Level Kansas City Center
12:48PM 37.9350 -97.3850 14° North 179 206 7,000  Level Kansas City Center
12:49PM 37.9828 -97.3700 14° North 177 204 7,000  Level Kansas City Center
12:50PM 38.0400 -97.3528 13° North 176 203 7,000  Level Kansas City Center
12:51PM 38.0872 -97.3383 14° North 176 203 7,000  Level Kansas City Center
12:52PM 38.1342 -97.3233 14° North 174 200 7,000  Level Kansas City Center
12:53PM 38.1819 -97.3092 13° North 176 203 7,000  Level Kansas City Center
12:54PM 38.2286 -97.2939 14° North 173 199 7,000  Level Kansas City Center
12:55PM 38.2761 -97.2792 14° North 175 201 7,000  Level Kansas City Center
12:57PM 38.3388 -97.2543 17° North  Level FlightAware Approximate
12:57PM 38.3792 -97.2464 17° North 175 201 7,000  Level Kansas City Center
12:58PM 38.4258 -97.2322 13° North 173 199 7,000  Level Kansas City Center
12:59PM 38.4658 -97.1881 41° Northeast 185 213 7,000  Level Kansas City Center
01:00PM 38.5044 -97.1425 43° Northeast 181 208 7,000  Level Kansas City Center
01:01PM 38.5403 -97.0933 47° Northeast 180 207 7,000  Level Kansas City Center
01:03PM 38.5744 -97.0483 46° Northeast 181 208 7,000  Level Kansas City Center
01:04PM 38.6103 -96.9992 47° Northeast 182 209 7,000  Level Kansas City Center
01:05PM 38.6458 -96.9508 47° Northeast 180 207 7,000  Level Kansas City Center
01:06PM 38.6819 -96.9019 47° Northeast 180 207 7,000  Level Kansas City Center
01:07PM 38.7172 -96.8528 47° Northeast 182 209 7,000  Level Kansas City Center
01:08PM 38.7525 -96.8056 46° Northeast 177 204 7,000  Level Kansas City Center
01:09PM 38.7875 -96.7575 47° Northeast 177 204 7,000  Level Kansas City Center
01:10PM 38.8217 -96.7103 47° Northeast 174 200 7,000  Level Kansas City Center
01:11PM 38.8544 -96.6669 46° Northeast 176 203 7,000  Level Kansas City Center
01:12PM 38.8883 -96.6194 47° Northeast 174 200 7,000  Level Kansas City Center
01:13PM 38.9228 -96.5717 47° Northeast 175 201 7,000  Level Kansas City Center
01:14PM 38.9572 -96.5239 47° Northeast 176 203 7,000  Level Kansas City Center
01:15PM 38.9919 -96.4758 47° Northeast 176 203 7,000  Level Kansas City Center
01:16PM 39.0267 -96.4278 47° Northeast 175 201 7,000  Level Kansas City Center
01:17PM 39.0608 -96.3797 48° Northeast 175 201 7,000  Level Kansas City Center
01:18PM 39.0958 -96.3314 47° Northeast 176 203 7,000  Level Kansas City Center
01:19PM 39.1275 -96.2875 47° Northeast 176 203 7,000  Level Kansas City Center
01:20PM 39.1622 -96.2386 48° Northeast 176 203 7,000  Level Kansas City Center
01:21PM 39.1969 -96.1900 47° Northeast 176 203 7,000  Level Kansas City Center
01:22PM 39.2278 -96.1461 48° Northeast 176 203 7,000  Level Kansas City Center
01:23PM 39.2653 -96.0936 47° Northeast 178 205 7,000  Level Kansas City Center
01:24PM 39.2975 -96.0483 47° Northeast 179 206 7,000  Level Kansas City Center
01:25PM 39.3342 -95.9967 47° Northeast 175 201 7,000  Level Kansas City Center
01:26PM 39.3656 -95.9522 48° Northeast 175 201 7,000  Level Kansas City Center
01:27PM 39.4019 -95.9017 47° Northeast 171 197 7,000  Level Kansas City Center
01:28PM 39.4325 -95.8572 48° Northeast 172 198 7,000  Level Kansas City Center
01:29PM 39.4633 -95.8142 47° Northeast 171 197 7,000  Level Kansas City Center
01:30PM 39.4994 -95.7628 48° Northeast 171 197 7,000  Level Kansas City Center
01:31PM 39.5306 -95.7189 47° Northeast 172 198 7,000  Level Kansas City Center
01:33PM 39.5672 -95.6667 48° Northeast 175 201 7,000  Level Kansas City Center
01:34PM 39.5981 -95.6239 47° Northeast 170 196 7,000  Level Kansas City Center
01:35PM 39.6331 -95.5736 48° Northeast 169 194 7,000  Level Kansas City Center
01:36PM 39.6636 -95.5297 48° Northeast 170 196 7,000 -60 Level Kansas City Center
01:37PM 39.6989 -95.4797 47° Northeast 170 196 6,900  Descending Kansas City Center
01:38PM 39.7297 -95.4358 48° Northeast 171 197 7,000  Climbing Kansas City Center
01:39PM 39.7650 -95.3853 48° Northeast 170 196 7,000  Level Kansas City Center
01:40PM 39.7947 -95.3428 48° Northeast 167 192 7,000 -60 Level Kansas City Center
01:41PM 39.8256 -95.2981 48° Northeast 172 198 6,900  Descending Kansas City Center
01:42PM 39.8614 -95.2467 48° Northeast 171 197 7,000  Climbing Kansas City Center
01:43PM 39.8947 -95.1975 49° Northeast 172 198 7,000  Level Kansas City Center
01:44PM 39.9281 -95.1503 47° Northeast 172 198 7,000  Level Kansas City Center
01:45PM 39.9581 -95.1067 48° Northeast 170 196 7,000  Level Kansas City Center
01:46PM 39.9933 -95.0556 48° Northeast 169 194 7,000 -60 Level Kansas City Center
01:47PM 40.0228 -95.0131 48° Northeast 166 191 6,900  Descending Kansas City Center
01:48PM 40.0578 -94.9614 48° Northeast 169 194 7,000  Climbing Kansas City Center
01:49PM 40.0861 -94.9194 49° Northeast 164 189 7,000  Level Kansas City Center
01:50PM 40.1208 -94.8708 47° Northeast 164 189 7,000  Level Kansas City Center
01:51PM 40.1486 -94.8275 50° Northeast 163 188 7,000  Level Kansas City Center
01:52PM 40.1819 -94.7797 48° Northeast 161 185 7,000 -180 Level Kansas City Center
01:53PM 40.2119 -94.7378 47° Northeast 162 186 6,700 -360 Descending Kansas City Center
01:54PM 40.2431 -94.6931 48° Northeast 168 193 6,300 -480 Descending Kansas City Center
01:55PM 40.2797 -94.6394 48° Northeast 173 199 5,800 -480 Descending Kansas City Center
01:56PM 40.3111 -94.5914 49° Northeast 177 204 5,400 -420 Descending Kansas City Center
01:57PM 40.3472 -94.5369 49° Northeast 178 205 5,000 -240 Descending Kansas City Center
01:58PM 40.3769 -94.4922 49° Northeast 174 200 5,000  Level Kansas City Center
01:59PM 40.4114 -94.4447 46° Northeast 166 191 5,000  Level Kansas City Center
02:00PM 40.4431 -94.3986 48° Northeast 162 186 5,000  Level Kansas City Center
02:01PM 40.4719 -94.3533 50° Northeast 163 188 5,000 -60 Level Kansas City Center
02:03PM 40.5017 -94.3094 48° Northeast 163 188 4,900  Descending Kansas City Center
02:04PM 40.5319 -94.2653 48° Northeast 163 188 5,000  Climbing Kansas City Center
02:05PM 40.5614 -94.2208 49° Northeast 163 188 4,900  Descending Kansas City Center
02:06PM 40.5969 -94.1689 48° Northeast 162 186 5,000  Climbing Kansas City Center
02:07PM 40.6256 -94.1258 49° Northeast 160 184 5,000  Level Kansas City Center
02:08PM 40.6547 -94.0811 49° Northeast 160 184 5,000  Level Kansas City Center
02:09PM 40.6969 -94.0192 48° Northeast 162 186 5,000  Level Minneapolis Center
02:10PM 40.7267 -93.9728 50° Northeast 164 189 5,000  Level Minneapolis Center
02:11PM 40.7567 -93.9300 47° Northeast 163 188 5,000  Level Minneapolis Center
02:12PM 40.7858 -93.8853 49° Northeast 162 186 5,000  Level Minneapolis Center
02:13PM 40.8247 -93.8286 48° Northeast 163 188 5,000  Level Minneapolis Center
02:14PM 40.8558 -93.7847 47° Northeast 165 190 5,000  Level Minneapolis Center
02:15PM 40.8831 -93.7436 49° Northeast 163 188 5,000  Level Minneapolis Center
02:16PM 40.9139 -93.6967 49° Northeast 164 189 5,000  Level Minneapolis Center
02:17PM 40.9428 -93.6500 51° Northeast 166 191 5,000 -60 Level Minneapolis Center
02:18PM 40.9853 -93.6214 27° Northeast 163 188 4,900  Descending Minneapolis Center
02:19PM 41.0311 -93.5839 32° Northeast 165 190 5,000  Climbing Minneapolis Center
02:20PM 41.0742 -93.5522 29° Northeast 167 192 5,000  Level Minneapolis Center
02:21PM 41.1014 -93.5275 34° Northeast 168 193 5,000  Level Minneapolis Center
02:21PM 41.1144 -93.5200 23° Northeast 168 193 5,000  Level Minneapolis Center
02:22PM 41.1414 -93.4961 34° Northeast 167 192 5,000 -120 Level Minneapolis Center
02:22PM 41.1567 -93.4853 28° Northeast 167 192 4,900 -360 Descending Minneapolis Center
02:23PM 41.1914 -93.4528 35° Northeast 173 199 4,600 -720 Descending Minneapolis Center
02:24PM 41.2219 -93.4000 52° Northeast 189 217 3,700 -1,320 Descending Minneapolis Center
02:25PM 41.2569 -93.3522 46° Northeast 195 224 2,100 -1,380 Descending Minneapolis Center
02:26PM 41.2692 -93.3367 44° Northeast 196 226 1,800 -300 Descending Minneapolis Center
02:27PM 41.2928 -93.2908 56° Northeast 171 197 1,700  Descending Minneapolis Center
02:28PM 41.3214 -93.2383 54° Northeast 158 182 1,900 60 Climbing Minneapolis Center
02:29PM 41.3447 -93.1983 52° Northeast 160 184 1,900  Level Minneapolis Center
02:30PM 41.3700 -93.1322 63° Northeast 162 186 2,000 60 Climbing Minneapolis Center
02:31PM 41.3936 -93.0772 60° Northeast 161 185 2,100  Climbing Minneapolis Center
02:32PM 41.4142 -93.0300 60° Northeast 161 185 2,000 -120 Descending Minneapolis Center